Time,TemperatureF,DewpointF,PressureIn,WindDirection,WindDirectionDegrees,WindSpeedMPH,WindSpeedGustMPH,Humidity,HourlyPrecipIn,Conditions,Clouds,dailyrainin,SolarRadiationWatts/m^2,SoftwareType,DateUTC
2013-03-27 00:00:00,48.4,34.8,30.21,NE,45,3.0,11.0,59,0.00,,---,0.00,0.00,VWS V14.01,2013-03-27 04:00:00,
2013-03-27 00:07:00,48.2,35.0,30.21,NW,319,3.0,9.0,60,0.00,,,0.00,0,weatherlink.com 1.10,2013-03-27 04:07:00,
2013-03-27 00:22:00,47.9,35.0,30.21,East,82,5.0,8.0,62,0.00,,,0.00,0,weatherlink.com 1.10,2013-03-27 04:22:00,
2013-03-27 00:30:00,47.8,35.8,30.21,NNE,22,3.0,8.0,63,0.00,,---,0.00,0.00,VWS V14.01,2013-03-27 04:30:00,
2013-03-27 00:37:00,47.5,35.0,30.21,WSW,250,3.0,9.0,63,0.00,,,0.00,0,weatherlink.com 1.10,2013-03-27 04:37:00,
2013-03-27 00:52:00,47.2,36.0,30.21,West,271,4.0,8.0,65,0.00,,,0.00,0,weatherlink.com 1.10,2013-03-27 04:52:00,
2013-03-27 01:00:00,47.1,36.0,30.21,NE,45,3.0,9.0,65,0.00,,---,0.00,0.00,VWS V14.01,2013-03-27 05:00:00,
2013-03-27 01:07:00,46.9,36.0,30.21,WNW,300,5.0,7.0,67,0.00,,,0.00,0,weatherlink.com 1.10,2013-03-27 05:07:00,
2013-03-27 01:23:00,46.4,37.0,30.21,WNW,293,5.0,7.0,69,0.00,,,0.00,0,weatherlink.com 1.10,2013-03-27 05:23:00,
2013-03-27 01:30:00,46.2,36.6,30.21,NNE,22,3.0,8.0,69,0.00,,---,0.00,0.00,VWS V14.01,2013-03-27 05:30:00,
2013-03-27 01:38:00,46.1,37.0,30.20,WNW,290,3.0,8.0,70,0.00,,,0.00,0,weatherlink.com 1.10,2013-03-27 05:38:00,
2013-03-27 01:53:00,45.9,37.0,30.20,NE,51,4.0,10.0,70,0.00,,,0.00,0,weatherlink.com 1.10,2013-03-27 05:53:00,
2013-03-27 02:00:00,45.8,37.0,30.20,NE,45,3.0,10.0,71,0.00,,---,0.00,0.00,VWS V14.01,2013-03-27 06:00:00,
2013-03-27 02:08:00,45.8,37.0,30.19,SSE,166,3.0,8.0,71,0.00,,,0.00,0,weatherlink.com 1.10,2013-03-27 06:08:00,
2013-03-27 02:23:00,45.7,36.0,30.19,ENE,78,5.0,9.0,70,0.00,,,0.00,0,weatherlink.com 1.10,2013-03-27 06:23:00,
2013-03-27 02:30:00,45.6,36.4,30.19,NNE,22,4.0,10.0,70,0.00,,---,0.00,0.00,VWS V14.01,2013-03-27 06:30:00,
2013-03-27 02:38:00,45.8,37.0,30.19,NW,307,3.0,9.0,70,0.00,,,0.00,0,weatherlink.com 1.10,2013-03-27 06:38:00,
2013-03-27 02:53:00,45.8,36.0,30.19,West,264,4.0,7.0,69,0.00,,,0.00,0,weatherlink.com 1.10,2013-03-27 06:53:00,
2013-03-27 03:00:00,45.9,36.0,30.19,NNE,22,4.0,9.0,68,0.00,,---,0.00,0.00,VWS V14.01,2013-03-27 07:00:00,
2013-03-27 03:08:00,46.1,36.0,30.19,WSW,254,3.0,8.0,67,0.00,,,0.00,0,weatherlink.com 1.10,2013-03-27 07:08:00,
2013-03-27 03:23:00,46.3,36.0,30.19,NE,36,3.0,7.0,67,0.00,,,0.00,0,weatherlink.com 1.10,2013-03-27 07:23:00,
2013-03-27 03:30:00,46.5,35.8,30.19,NE,45,3.0,8.0,66,0.00,,---,0.00,0.00,VWS V14.01,2013-03-27 07:30:00,
2013-03-27 03:38:00,46.8,35.0,30.18,West,277,4.0,10.0,65,0.00,,,0.00,0,weatherlink.com 1.10,2013-03-27 07:38:00,
2013-03-27 03:53:00,47.2,35.0,30.19,ENE,59,3.0,10.0,63,0.00,,,0.00,0,weatherlink.com 1.10,2013-03-27 07:53:00,
2013-03-27 04:00:00,47.2,35.3,30.19,NNE,22,4.0,11.0,63,0.00,,---,0.00,0.00,VWS V14.01,2013-03-27 08:00:00,
2013-03-27 04:08:00,47.2,35.0,30.19,NNE,24,3.0,8.0,63,0.00,,,0.00,0,weatherlink.com 1.10,2013-03-27 08:08:00,
2013-03-27 04:23:00,47.2,35.0,30.19,North,350,3.0,8.0,63,0.00,,,0.00,0,weatherlink.com 1.10,2013-03-27 08:23:00,
2013-03-27 04:30:00,47.0,35.1,30.19,NNE,22,4.0,11.0,63,0.00,,---,0.00,0.00,VWS V14.01,2013-03-27 08:30:00,
2013-03-27 04:38:00,46.8,34.0,30.19,NW,320,2.0,9.0,62,0.00,,,0.00,0,weatherlink.com 1.10,2013-03-27 08:38:00,
2013-03-27 04:53:00,46.8,35.0,30.20,West,266,2.0,11.0,63,0.00,,,0.00,0,weatherlink.com 1.10,2013-03-27 08:53:00,
2013-03-27 05:00:00,46.8,34.9,30.19,NNE,22,3.0,11.0,63,0.00,,---,0.00,0.00,VWS V14.01,2013-03-27 09:00:00,
2013-03-27 05:08:00,46.6,35.0,30.20,West,260,6.0,9.0,64,0.00,,,0.00,0,weatherlink.com 1.10,2013-03-27 09:08:00,
2013-03-27 05:23:00,46.7,35.0,30.20,NW,313,1.0,7.0,64,0.00,,,0.00,0,weatherlink.com 1.10,2013-03-27 09:23:00,
2013-03-27 05:30:00,46.7,34.8,30.20,NNE,22,3.0,9.0,63,0.00,,---,0.00,0.00,VWS V14.01,2013-03-27 09:30:00,
2013-03-27 05:38:00,46.8,35.0,30.20,NNE,26,2.0,9.0,63,0.00,,,0.00,0,weatherlink.com 1.10,2013-03-27 09:38:00,
2013-03-27 05:53:00,46.7,34.0,30.20,WNW,292,1.0,5.0,62,0.00,,,0.00,0,weatherlink.com 1.10,2013-03-27 09:53:00,
2013-03-27 06:00:00,46.5,34.2,30.20,NNE,22,3.0,9.0,62,0.00,,---,0.00,0.00,VWS V14.01,2013-03-27 10:00:00,
2013-03-27 06:08:00,46.5,34.0,30.20,NNE,33,3.0,8.0,63,0.00,,,0.00,0,weatherlink.com 1.10,2013-03-27 10:08:00,
2013-03-27 06:23:00,46.7,34.0,30.20,NNW,327,3.0,10.0,62,0.00,,,0.00,0,weatherlink.com 1.10,2013-03-27 10:23:00,
2013-03-27 06:30:00,46.8,34.5,30.20,NNE,22,4.0,10.0,62,0.00,,---,0.00,0.00,VWS V14.01,2013-03-27 10:30:00,
2013-03-27 06:38:00,46.8,34.0,30.20,NNW,344,2.0,8.0,62,0.00,,,0.00,0,weatherlink.com 1.10,2013-03-27 10:38:00,
2013-03-27 06:53:00,46.4,33.0,30.21,WNW,287,4.0,8.0,60,0.00,,,0.00,0,weatherlink.com 1.10,2013-03-27 10:53:00,
2013-03-27 07:00:00,46.4,33.3,30.21,NNE,22,3.0,9.0,60,0.00,,---,0.00,0.00,VWS V14.01,2013-03-27 11:00:00,
2013-03-27 07:08:00,46.1,32.0,30.22,NNW,338,2.0,8.0,59,0.00,,,0.00,0,weatherlink.com 1.10,2013-03-27 11:08:00,
2013-03-27 07:23:00,46.0,33.0,30.23,NW,319,3.0,8.0,60,0.00,,,0.00,9,weatherlink.com 1.10,2013-03-27 11:23:00,
2013-03-27 07:30:00,46.0,32.5,30.23,NNE,22,3.0,8.0,59,0.00,,---,0.00,4.00,VWS V14.01,2013-03-27 11:30:00,
2013-03-27 07:38:00,46.4,32.0,30.23,SW,226,2.0,7.0,58,0.00,,,0.00,21,weatherlink.com 1.10,2013-03-27 11:38:00,
2013-03-27 07:53:00,47.1,33.0,30.24,West,279,3.0,7.0,58,0.00,,,0.00,62,weatherlink.com 1.10,2013-03-27 11:53:00,
2013-03-27 08:00:00,48.0,33.5,30.24,NE,45,3.0,8.0,57,0.00,,---,0.00,35.00,VWS V14.01,2013-03-27 12:00:00,
2013-03-27 08:08:00,49.5,33.0,30.24,North,360,5.0,7.0,54,0.00,,,0.00,125,weatherlink.com 1.10,2013-03-27 12:08:00,
2013-03-27 08:25:00,51.4,34.0,30.24,NE,49,1.0,8.0,51,0.00,,,0.00,193,weatherlink.com 1.10,2013-03-27 12:25:00,
2013-03-27 08:30:00,52.1,34.0,30.24,NNE,22,3.0,8.0,50,0.00,,---,0.00,151.00,VWS V14.01,2013-03-27 12:30:00,
2013-03-27 08:38:00,53.1,34.0,30.25,ENE,62,3.0,8.0,48,0.00,,,0.00,253,weatherlink.com 1.10,2013-03-27 12:38:00,
2013-03-27 08:53:00,54.2,35.0,30.25,WSW,248,2.0,8.0,48,0.00,,,0.00,316,weatherlink.com 1.10,2013-03-27 12:53:00,
2013-03-27 09:00:00,54.9,36.1,30.25,North,0,4.0,8.0,49,0.00,,---,0.00,277.00,VWS V14.01,2013-03-27 13:00:00,
2013-03-27 09:24:00,56.8,37.0,30.26,NE,36,5.0,7.0,47,0.00,,,0.00,438,weatherlink.com 1.10,2013-03-27 13:24:00,
2013-03-27 09:30:00,57.1,37.6,30.26,NE,45,4.0,10.0,48,0.00,,---,0.00,401.00,VWS V14.01,2013-03-27 13:30:00,
2013-03-27 09:39:00,58.4,38.0,30.27,North,5,5.0,8.0,47,0.00,,,0.00,494,weatherlink.com 1.10,2013-03-27 13:39:00,
2013-03-27 09:54:00,58.6,39.0,30.27,ENE,65,3.0,9.0,49,0.00,,,0.00,550,weatherlink.com 1.10,2013-03-27 13:54:00,
2013-03-27 10:00:00,59.0,39.9,30.27,NW,315,4.0,9.0,49,0.00,,---,0.00,521.00,VWS V14.01,2013-03-27 14:00:00,
2013-03-27 10:09:00,58.8,39.0,30.27,West,277,5.0,8.0,49,0.00,,,0.00,612,weatherlink.com 1.10,2013-03-27 14:09:00,
2013-03-27 10:24:00,60.2,40.0,30.27,NE,41,3.0,9.0,47,0.00,,,0.00,661,weatherlink.com 1.10,2013-03-27 14:24:00,
2013-03-27 10:30:00,60.6,40.8,30.27,NE,45,4.0,9.0,48,0.00,,---,0.00,627.00,VWS V14.01,2013-03-27 14:30:00,
2013-03-27 10:39:00,61.4,42.0,30.28,SW,219,5.0,7.0,49,0.00,,,0.00,712,weatherlink.com 1.10,2013-03-27 14:39:00,
2013-03-27 10:54:00,62.1,43.0,30.28,NE,42,5.0,9.0,50,0.00,,,0.00,756,weatherlink.com 1.10,2013-03-27 14:54:00,
2013-03-27 11:00:00,61.6,42.3,30.28,NE,45,4.0,9.0,49,0.00,,---,0.00,727.00,VWS V14.01,2013-03-27 15:00:00,
2013-03-27 11:09:00,62.1,43.0,30.28,ENE,65,9.0,9.0,50,0.00,,,0.00,802,weatherlink.com 1.10,2013-03-27 15:09:00,
2013-03-27 11:30:00,62.4,43.0,30.28,ENE,68,4.0,11.0,49,0.00,,---,0.00,817.00,VWS V14.01,2013-03-27 15:30:00,
2013-03-27 11:39:00,62.5,42.0,30.28,WNW,299,3.0,9.0,48,0.00,,,0.00,879,weatherlink.com 1.10,2013-03-27 15:39:00,
2013-03-27 11:54:00,62.4,43.0,30.28,NNE,27,7.0,9.0,50,0.00,,,0.00,909,weatherlink.com 1.10,2013-03-27 15:54:00,
2013-03-27 12:00:00,62.6,43.7,30.28,NE,45,4.0,11.0,50,0.00,,---,0.00,889.00,VWS V14.01,2013-03-27 16:00:00,
2013-03-27 12:09:00,63.0,44.0,30.28,NE,56,4.0,9.0,50,0.00,,,0.00,940,weatherlink.com 1.10,2013-03-27 16:09:00,
2013-03-27 12:24:00,63.4,43.0,30.28,NNE,22,5.0,8.0,47,0.00,,,0.00,963,weatherlink.com 1.10,2013-03-27 16:24:00,
2013-03-27 12:30:00,63.7,43.1,30.28,NE,45,4.0,10.0,47,0.00,,---,0.00,946.00,VWS V14.01,2013-03-27 16:30:00,
2013-03-27 12:39:00,61.4,43.0,30.27,WNW,296,7.0,11.0,52,0.00,,,0.00,983,weatherlink.com 1.10,2013-03-27 16:39:00,
2013-03-27 12:54:00,61.1,43.0,30.26,NE,53,3.0,10.0,51,0.00,,,0.00,995,weatherlink.com 1.10,2013-03-27 16:54:00,
2013-03-27 13:00:00,61.2,43.0,30.26,North,0,5.0,11.0,51,0.00,,---,0.00,983.00,VWS V14.01,2013-03-27 17:00:00,
2013-03-27 13:09:00,62.3,42.0,30.26,NNE,33,3.0,10.0,48,0.00,,,0.00,1000,weatherlink.com 1.10,2013-03-27 17:09:00,
2013-03-27 13:24:00,61.9,43.0,30.26,WSW,242,5.0,10.0,50,0.00,,,0.00,1004,weatherlink.com 1.10,2013-03-27 17:24:00,
2013-03-27 13:30:00,62.5,41.5,30.25,North,0,4.0,10.0,46,0.00,,---,0.00,1003.00,VWS V14.01,2013-03-27 17:30:00,
2013-03-27 13:39:00,61.7,42.0,30.25,NW,326,7.0,12.0,48,0.00,,,0.00,1005,weatherlink.com 1.10,2013-03-27 17:39:00,
2013-03-27 13:54:00,62.1,41.0,30.25,WNW,291,4.0,8.0,46,0.00,,,0.00,1007,weatherlink.com 1.10,2013-03-27 17:54:00,
2013-03-27 14:00:00,62.5,42.6,30.24,NNW,338,5.0,12.0,48,0.00,,---,0.00,1005.00,VWS V14.01,2013-03-27 18:00:00,
2013-03-27 14:09:00,62.3,42.0,30.24,NE,42,5.0,10.0,47,0.00,,,0.00,997,weatherlink.com 1.10,2013-03-27 18:09:00,
2013-03-27 14:25:00,62.9,42.0,30.23,ENE,59,5.0,9.0,47,0.00,,,0.00,983,weatherlink.com 1.10,2013-03-27 18:25:00,
2013-03-27 14:30:00,62.8,41.7,30.23,NNW,338,5.0,10.0,46,0.00,,---,0.00,992.00,VWS V14.01,2013-03-27 18:30:00,
2013-03-27 14:40:00,63.5,41.0,30.23,NNW,335,7.0,12.0,44,0.00,,,0.00,967,weatherlink.com 1.10,2013-03-27 18:40:00,
2013-03-27 14:55:00,63.9,41.0,30.23,NNW,330,3.0,10.0,43,0.00,,,0.00,946,weatherlink.com 1.10,2013-03-27 18:55:00,
2013-03-27 15:00:00,63.6,40.1,30.23,NW,315,5.0,12.0,42,0.00,,---,0.00,960.00,VWS V14.01,2013-03-27 19:00:00,
2013-03-27 15:10:00,63.6,40.0,30.23,ENE,75,4.0,9.0,42,0.00,,,0.00,918,weatherlink.com 1.10,2013-03-27 19:10:00,
2013-03-27 15:25:00,63.4,39.0,30.21,North,9,7.0,9.0,41,0.00,,,0.00,886,weatherlink.com 1.10,2013-03-27 19:25:00,
2013-03-27 15:30:00,63.2,39.8,30.21,NNW,338,5.0,10.0,42,0.00,,---,0.00,907.00,VWS V14.01,2013-03-27 19:30:00,
2013-03-27 15:40:00,63.4,40.0,30.21,NW,321,4.0,11.0,42,0.00,,,0.00,851,weatherlink.com 1.10,2013-03-27 19:40:00,
2013-03-27 15:55:00,63.4,40.0,30.21,SSW,202,2.0,9.0,43,0.00,,,0.00,812,weatherlink.com 1.10,2013-03-27 19:55:00,
2013-03-27 16:00:00,64.1,40.6,30.21,North,0,5.0,11.0,42,0.00,,---,0.00,841.00,VWS V14.01,2013-03-27 20:00:00,
2013-03-27 16:10:00,64.0,41.0,30.21,ENE,72,2.0,10.0,43,0.00,,,0.00,772,weatherlink.com 1.10,2013-03-27 20:10:00,
2013-03-27 16:25:00,64.2,40.0,30.20,WNW,285,3.0,8.0,42,0.00,,,0.00,728,weatherlink.com 1.10,2013-03-27 20:25:00,
2013-03-27 16:30:00,64.4,40.2,30.21,NNW,338,4.0,10.0,41,0.00,,---,0.00,755.00,VWS V14.01,2013-03-27 20:30:00,
2013-03-27 16:40:00,64.9,41.0,30.20,NNW,344,2.0,8.0,42,0.00,,,0.00,671,weatherlink.com 1.10,2013-03-27 20:40:00,
2013-03-27 16:55:00,65.0,42.0,30.20,NW,311,6.0,9.0,44,0.00,,,0.00,619,weatherlink.com 1.10,2013-03-27 20:55:00,
2013-03-27 17:00:00,65.2,42.8,30.20,WNW,292,4.0,9.0,44,0.00,,---,0.00,658.00,VWS V14.01,2013-03-27 21:00:00,
2013-03-27 17:10:00,64.3,42.0,30.20,NNW,346,4.0,8.0,44,0.00,,,0.00,563,weatherlink.com 1.10,2013-03-27 21:10:00,
2013-03-27 17:25:00,64.2,42.0,30.20,WSW,256,3.0,9.0,45,0.00,,,0.00,506,weatherlink.com 1.10,2013-03-27 21:25:00,
2013-03-27 17:30:00,64.5,42.7,30.21,NW,315,4.0,9.0,45,0.00,,---,0.00,547.00,VWS V14.01,2013-03-27 21:30:00,
2013-03-27 17:40:00,62.6,42.0,30.21,NW,310,4.0,9.0,47,0.00,,,0.00,446,weatherlink.com 1.10,2013-03-27 21:40:00,
2013-03-27 17:55:00,62.5,42.0,30.21,NNW,339,4.0,9.0,47,0.00,,,0.00,385,weatherlink.com 1.10,2013-03-27 21:55:00,
2013-03-27 18:00:00,62.3,42.9,30.21,NNW,338,4.0,9.0,49,0.00,,---,0.00,427.00,VWS V14.01,2013-03-27 22:00:00,
2013-03-27 18:10:00,62.5,43.0,30.21,NNW,344,6.0,8.0,50,0.00,,,0.00,322,weatherlink.com 1.10,2013-03-27 22:10:00,
2013-03-27 18:25:00,61.6,43.0,30.22,West,280,4.0,9.0,50,0.00,,,0.00,258,weatherlink.com 1.10,2013-03-27 22:25:00,
2013-03-27 18:30:00,61.6,43.3,30.22,NW,315,4.0,9.0,51,0.00,,---,0.00,301.00,VWS V14.01,2013-03-27 22:30:00,
2013-03-27 18:40:00,61.3,43.0,30.22,WNW,291,2.0,9.0,52,0.00,,,0.00,186,weatherlink.com 1.10,2013-03-27 22:40:00,
2013-03-27 18:55:00,60.7,43.0,30.22,NNE,13,4.0,7.0,52,0.00,,,0.00,118,weatherlink.com 1.10,2013-03-27 22:55:00,
2013-03-27 19:00:00,60.5,42.8,30.22,NW,315,4.0,9.0,52,0.00,,---,0.00,169.00,VWS V14.01,2013-03-27 23:00:00,
2013-03-27 19:10:00,59.8,42.0,30.21,WNW,301,3.0,9.0,53,0.00,,,0.00,58,weatherlink.com 1.10,2013-03-27 23:10:00,
2013-03-27 19:25:00,58.1,43.0,30.21,NNW,340,2.0,7.0,57,0.00,,,0.00,18,weatherlink.com 1.10,2013-03-27 23:25:00,
2013-03-27 19:30:00,57.9,42.3,30.22,NNW,338,4.0,9.0,56,0.00,,---,0.00,48.00,VWS V14.01,2013-03-27 23:30:00,
2013-03-27 19:40:00,57.5,43.0,30.22,North,355,3.0,7.0,59,0.00,,,0.00,0,weatherlink.com 1.10,2013-03-27 23:40:00,
2013-03-27 19:55:00,57.3,43.0,30.22,WNW,290,4.0,6.0,59,0.00,,,0.00,0,weatherlink.com 1.10,2013-03-27 23:55:00,
2013-03-27 20:00:00,57.4,44.1,30.22,WNW,292,3.0,9.0,61,0.00,,---,0.00,3.00,VWS V14.01,2013-03-28 00:00:00,
2013-03-27 20:10:00,57.3,44.0,30.22,North,5,2.0,6.0,62,0.00,,,0.00,0,weatherlink.com 1.10,2013-03-28 00:10:00,
2013-03-27 20:25:00,57.2,44.0,30.22,NNW,345,3.0,9.0,61,0.00,,,0.00,0,weatherlink.com 1.10,2013-03-28 00:25:00,
2013-03-27 20:30:00,57.3,43.1,30.23,WNW,292,3.0,9.0,59,0.00,,---,0.00,0.00,VWS V14.01,2013-03-28 00:30:00,
2013-03-27 20:40:00,57.3,44.0,30.22,WNW,302,3.0,8.0,62,0.00,,,0.00,0,weatherlink.com 1.10,2013-03-28 00:40:00,
2013-03-27 20:55:00,57.2,44.0,30.23,WNW,301,2.0,6.0,61,0.00,,,0.00,0,weatherlink.com 1.10,2013-03-28 00:55:00,
2013-03-27 21:00:00,57.2,43.9,30.23,WNW,292,3.0,9.0,61,0.00,,---,0.00,0.00,VWS V14.01,2013-03-28 01:00:00,
2013-03-27 21:10:00,57.4,45.0,30.23,SSW,207,2.0,8.0,64,0.00,,,0.00,0,weatherlink.com 1.10,2013-03-28 01:10:00,
2013-03-27 21:25:00,57.5,45.0,30.23,NW,314,4.0,7.0,64,0.00,,,0.00,0,weatherlink.com 1.10,2013-03-28 01:25:00,
2013-03-27 21:30:00,57.5,44.6,30.23,NW,315,3.0,7.0,62,0.00,,---,0.00,0.00,VWS V14.01,2013-03-28 01:30:00,
2013-03-27 21:40:00,57.1,43.0,30.23,NNE,20,1.0,5.0,59,0.00,,,0.00,0,weatherlink.com 1.10,2013-03-28 01:40:00,
2013-03-27 21:55:00,57.2,44.0,30.24,North,5,4.0,6.0,62,0.00,,,0.00,0,weatherlink.com 1.10,2013-03-28 01:55:00,
2013-03-27 22:00:00,57.2,43.9,30.24,NNW,338,2.0,8.0,61,0.00,,---,0.00,0.00,VWS V14.01,2013-03-28 02:00:00,
2013-03-27 22:10:00,57.1,43.0,30.24,NE,53,0.0,5.0,60,0.00,,,0.00,0,weatherlink.com 1.10,2013-03-28 02:10:00,
2013-03-27 22:25:00,56.9,42.0,30.25,ENE,70,3.0,5.0,57,0.00,,,0.00,0,weatherlink.com 1.10,2013-03-28 02:25:00,
2013-03-27 22:30:00,57.1,43.8,30.25,NW,315,2.0,6.0,61,0.00,,---,0.00,0.00,VWS V14.01,2013-03-28 02:30:00,
2013-03-27 22:40:00,57.1,42.0,30.24,NNE,32,2.0,8.0,58,0.00,,,0.00,0,weatherlink.com 1.10,2013-03-28 02:40:00,
2013-03-27 22:55:00,57.1,43.0,30.24,WNW,290,5.0,8.0,60,0.00,,,0.00,0,weatherlink.com 1.10,2013-03-28 02:55:00,
2013-03-27 23:00:00,57.1,42.9,30.24,North,0,3.0,8.0,59,0.00,,---,0.00,0.00,VWS V14.01,2013-03-28 03:00:00,
2013-03-27 23:10:00,57.2,42.0,30.25,NNW,330,1.0,8.0,58,0.00,,,0.00,0,weatherlink.com 1.10,2013-03-28 03:10:00,
2013-03-27 23:25:00,57.1,42.0,30.25,NW,306,3.0,7.0,58,0.00,,,0.00,0,weatherlink.com 1.10,2013-03-28 03:25:00,
2013-03-27 23:30:00,57.1,41.6,30.25,NNW,338,3.0,8.0,56,0.00,,---,0.00,0.00,VWS V14.01,2013-03-28 03:30:00,
2013-03-27 23:40:00,56.4,41.0,30.25,North,360,2.0,5.0,56,0.00,,,0.00,0,weatherlink.com 1.10,2013-03-28 03:40:00,
2013-03-27 23:55:00,56.4,42.0,30.25,WNW,290,0.0,4.0,59,0.00,,,0.00,0,weatherlink.com 1.10,2013-03-28 03:55:00,